sensor_id;sensor_type;location;lat;lon;timestamp;P1;durP1;ratioP1;P2;durP2;ratioP2
18340;SDS011;9296;48.084;16.352;2022-12-18T00:01:24;24.73;;;12.73;;
18340;SDS011;9296;48.084;16.352;2022-12-18T00:03:52;27.30;;;12.77;;
18340;SDS011;9296;48.084;16.352;2022-12-18T00:06:20;26.53;;;12.97;;
18340;SDS011;9296;48.084;16.352;2022-12-18T00:09:07;27.43;;;12.43;;
18340;SDS011;9296;48.084;16.352;2022-12-18T00:11:34;28.13;;;13.20;;
18340;SDS011;9296;48.084;16.352;2022-12-18T00:14:01;30.97;;;13.43;;
18340;SDS011;9296;48.084;16.352;2022-12-18T00:16:28;26.90;;;13.07;;
18340;SDS011;9296;48.084;16.352;2022-12-18T00:18:57;25.33;;;12.80;;
18340;SDS011;9296;48.084;16.352;2022-12-18T00:21:25;28.83;;;13.77;;
18340;SDS011;9296;48.084;16.352;2022-12-18T00:23:53;24.17;;;13.10;;
18340;SDS011;9296;48.084;16.352;2022-12-18T00:26:22;25.37;;;12.90;;
18340;SDS011;9296;48.084;16.352;2022-12-18T00:28:49;28.43;;;13.47;;
18340;SDS011;9296;48.084;16.352;2022-12-18T00:31:18;26.10;;;13.63;;
18340;SDS011;9296;48.084;16.352;2022-12-18T00:33:45;26.00;;;12.60;;
18340;SDS011;9296;48.084;16.352;2022-12-18T00:36:13;25.50;;;12.13;;
18340;SDS011;9296;48.084;16.352;2022-12-18T00:38:41;25.83;;;12.43;;
18340;SDS011;9296;48.084;16.352;2022-12-18T00:41:08;25.00;;;12.77;;
18340;SDS011;9296;48.084;16.352;2022-12-18T00:43:38;27.20;;;12.07;;
18340;SDS011;9296;48.084;16.352;2022-12-18T00:46:04;22.07;;;11.23;;
18340;SDS011;9296;48.084;16.352;2022-12-18T00:48:32;21.20;;;10.83;;
18340;SDS011;9296;48.084;16.352;2022-12-18T00:51:01;21.63;;;10.67;;
18340;SDS011;9296;48.084;16.352;2022-12-18T00:59:37;24.57;;;12.00;;
18340;SDS011;9296;48.084;16.352;2022-12-18T01:02:04;23.60;;;11.47;;
18340;SDS011;9296;48.084;16.352;2022-12-18T01:04:31;21.43;;;11.17;;
18340;SDS011;9296;48.084;16.352;2022-12-18T01:06:59;21.00;;;11.67;;
18340;SDS011;9296;48.084;16.352;2022-12-18T01:12:32;23.90;;;10.87;;
18340;SDS011;9296;48.084;16.352;2022-12-18T01:15:00;24.07;;;11.63;;
18340;SDS011;9296;48.084;16.352;2022-12-18T01:17:27;24.73;;;11.07;;
18340;SDS011;9296;48.084;16.352;2022-12-18T01:19:55;25.00;;;10.73;;
18340;SDS011;9296;48.084;16.352;2022-12-18T01:22:22;21.37;;;10.20;;
18340;SDS011;9296;48.084;16.352;2022-12-18T01:27:35;20.03;;;10.53;;
18340;SDS011;9296;48.084;16.352;2022-12-18T01:30:04;20.23;;;10.53;;
18340;SDS011;9296;48.084;16.352;2022-12-18T01:32:31;23.97;;;10.40;;
18340;SDS011;9296;48.084;16.352;2022-12-18T01:34:59;19.47;;;10.37;;
18340;SDS011;9296;48.084;16.352;2022-12-18T01:37:26;21.10;;;10.00;;
18340;SDS011;9296;48.084;16.352;2022-12-18T01:42:40;19.27;;;9.97;;
18340;SDS011;9296;48.084;16.352;2022-12-18T01:47:51;17.37;;;9.30;;
18340;SDS011;9296;48.084;16.352;2022-12-18T01:50:20;18.07;;;9.10;;
18340;SDS011;9296;48.084;16.352;2022-12-18T01:52:49;18.97;;;9.63;;
18340;SDS011;9296;48.084;16.352;2022-12-18T01:55:18;20.27;;;9.10;;
18340;SDS011;9296;48.084;16.352;2022-12-18T01:57:46;16.60;;;8.77;;
18340;SDS011;9296;48.084;16.352;2022-12-18T02:00:15;20.07;;;8.70;;
18340;SDS011;9296;48.084;16.352;2022-12-18T02:02:43;16.97;;;8.67;;
18340;SDS011;9296;48.084;16.352;2022-12-18T02:05:12;18.77;;;9.13;;
18340;SDS011;9296;48.084;16.352;2022-12-18T02:07:42;15.87;;;7.83;;
18340;SDS011;9296;48.084;16.352;2022-12-18T02:13:14;16.20;;;8.23;;
18340;SDS011;9296;48.084;16.352;2022-12-18T02:15:44;16.90;;;8.40;;
18340;SDS011;9296;48.084;16.352;2022-12-18T02:18:14;15.53;;;8.50;;
18340;SDS011;9296;48.084;16.352;2022-12-18T02:20:47;15.20;;;8.03;;
18340;SDS011;9296;48.084;16.352;2022-12-18T02:29:08;15.70;;;8.40;;
18340;SDS011;9296;48.084;16.352;2022-12-18T02:31:38;17.43;;;8.17;;
18340;SDS011;9296;48.084;16.352;2022-12-18T02:34:07;17.57;;;8.37;;
18340;SDS011;9296;48.084;16.352;2022-12-18T02:36:36;17.60;;;8.73;;
18340;SDS011;9296;48.084;16.352;2022-12-18T02:42:08;16.13;;;8.50;;
18340;SDS011;9296;48.084;16.352;2022-12-18T02:44:43;19.77;;;9.50;;
18340;SDS011;9296;48.084;16.352;2022-12-18T02:47:10;18.87;;;9.20;;
18340;SDS011;9296;48.084;16.352;2022-12-18T02:49:40;18.67;;;8.67;;
18340;SDS011;9296;48.084;16.352;2022-12-18T02:52:16;20.53;;;9.93;;
18340;SDS011;9296;48.084;16.352;2022-12-18T02:57:55;20.70;;;9.57;;
18340;SDS011;9296;48.084;16.352;2022-12-18T03:00:26;21.77;;;9.90;;
18340;SDS011;9296;48.084;16.352;2022-12-18T03:02:56;24.13;;;10.23;;
18340;SDS011;9296;48.084;16.352;2022-12-18T03:05:27;20.87;;;10.00;;
18340;SDS011;9296;48.084;16.352;2022-12-18T03:07:57;20.40;;;9.70;;
18340;SDS011;9296;48.084;16.352;2022-12-18T03:10:44;19.50;;;9.93;;
18340;SDS011;9296;48.084;16.352;2022-12-18T03:13:13;20.00;;;10.03;;
18340;SDS011;9296;48.084;16.352;2022-12-18T03:15:45;18.83;;;9.67;;
18340;SDS011;9296;48.084;16.352;2022-12-18T03:18:15;21.20;;;9.63;;
18340;SDS011;9296;48.084;16.352;2022-12-18T03:20:43;23.37;;;10.20;;
18340;SDS011;9296;48.084;16.352;2022-12-18T03:23:12;23.13;;;10.43;;
18340;SDS011;9296;48.084;16.352;2022-12-18T03:25:42;20.40;;;9.70;;
18340;SDS011;9296;48.084;16.352;2022-12-18T03:28:10;24.73;;;10.73;;
18340;SDS011;9296;48.084;16.352;2022-12-18T03:30:39;19.53;;;9.67;;
18340;SDS011;9296;48.084;16.352;2022-12-18T03:33:09;20.00;;;10.20;;
18340;SDS011;9296;48.084;16.352;2022-12-18T03:35:39;22.30;;;9.70;;
18340;SDS011;9296;48.084;16.352;2022-12-18T03:38:06;23.17;;;10.43;;
18340;SDS011;9296;48.084;16.352;2022-12-18T03:40:35;19.87;;;10.37;;
18340;SDS011;9296;48.084;16.352;2022-12-18T03:43:07;21.70;;;10.43;;
18340;SDS011;9296;48.084;16.352;2022-12-18T03:45:37;23.47;;;11.73;;
18340;SDS011;9296;48.084;16.352;2022-12-18T03:48:06;23.77;;;11.30;;
18340;SDS011;9296;48.084;16.352;2022-12-18T03:50:37;22.57;;;11.70;;
18340;SDS011;9296;48.084;16.352;2022-12-18T03:53:09;21.77;;;10.70;;
18340;SDS011;9296;48.084;16.352;2022-12-18T03:55:40;20.27;;;10.63;;
18340;SDS011;9296;48.084;16.352;2022-12-18T03:58:08;25.33;;;12.00;;
18340;SDS011;9296;48.084;16.352;2022-12-18T04:00:36;24.53;;;11.80;;
18340;SDS011;9296;48.084;16.352;2022-12-18T04:03:04;24.03;;;11.53;;
18340;SDS011;9296;48.084;16.352;2022-12-18T04:05:32;23.63;;;12.37;;
18340;SDS011;9296;48.084;16.352;2022-12-18T04:08:01;24.50;;;12.33;;
18340;SDS011;9296;48.084;16.352;2022-12-18T04:10:28;28.83;;;13.20;;
18340;SDS011;9296;48.084;16.352;2022-12-18T04:12:56;25.90;;;13.23;;
18340;SDS011;9296;48.084;16.352;2022-12-18T04:15:23;26.97;;;14.23;;
18340;SDS011;9296;48.084;16.352;2022-12-18T04:17:50;29.23;;;14.10;;
18340;SDS011;9296;48.084;16.352;2022-12-18T04:20:17;27.73;;;13.53;;
18340;SDS011;9296;48.084;16.352;2022-12-18T04:22:45;26.70;;;11.63;;
18340;SDS011;9296;48.084;16.352;2022-12-18T04:25:31;23.47;;;11.27;;
18340;SDS011;9296;48.084;16.352;2022-12-18T04:27:59;26.87;;;11.00;;
18340;SDS011;9296;48.084;16.352;2022-12-18T04:30:26;24.00;;;12.03;;
18340;SDS011;9296;48.084;16.352;2022-12-18T04:32:53;25.43;;;11.57;;
18340;SDS011;9296;48.084;16.352;2022-12-18T04:35:20;25.63;;;12.17;;
18340;SDS011;9296;48.084;16.352;2022-12-18T04:37:47;25.33;;;11.83;;
18340;SDS011;9296;48.084;16.352;2022-12-18T04:43:19;22.67;;;11.43;;
18340;SDS011;9296;48.084;16.352;2022-12-18T04:45:47;27.87;;;11.93;;
18340;SDS011;9296;48.084;16.352;2022-12-18T04:48:14;23.27;;;11.07;;
18340;SDS011;9296;48.084;16.352;2022-12-18T04:50:41;27.30;;;11.50;;
18340;SDS011;9296;48.084;16.352;2022-12-18T04:53:08;23.93;;;12.03;;
18340;SDS011;9296;48.084;16.352;2022-12-18T04:55:35;26.10;;;11.70;;
18340;SDS011;9296;48.084;16.352;2022-12-18T04:58:02;26.73;;;11.50;;
18340;SDS011;9296;48.084;16.352;2022-12-18T05:00:31;22.40;;;11.03;;
18340;SDS011;9296;48.084;16.352;2022-12-18T05:02:59;20.77;;;11.20;;
18340;SDS011;9296;48.084;16.352;2022-12-18T05:05:27;23.50;;;10.97;;
18340;SDS011;9296;48.084;16.352;2022-12-18T05:07:54;23.37;;;11.10;;
18340;SDS011;9296;48.084;16.352;2022-12-18T05:13:25;23.53;;;11.30;;
18340;SDS011;9296;48.084;16.352;2022-12-18T05:15:54;24.13;;;11.90;;
18340;SDS011;9296;48.084;16.352;2022-12-18T05:18:21;24.57;;;10.90;;
18340;SDS011;9296;48.084;16.352;2022-12-18T05:20:49;25.63;;;11.63;;
18340;SDS011;9296;48.084;16.352;2022-12-18T05:26:17;25.40;;;12.27;;
18340;SDS011;9296;48.084;16.352;2022-12-18T05:28:45;26.73;;;12.13;;
18340;SDS011;9296;48.084;16.352;2022-12-18T05:31:13;24.67;;;11.83;;
18340;SDS011;9296;48.084;16.352;2022-12-18T05:33:41;26.37;;;12.77;;
18340;SDS011;9296;48.084;16.352;2022-12-18T05:36:08;24.87;;;11.97;;
18340;SDS011;9296;48.084;16.352;2022-12-18T05:41:40;28.00;;;11.47;;
18340;SDS011;9296;48.084;16.352;2022-12-18T05:44:07;23.60;;;11.00;;
18340;SDS011;9296;48.084;16.352;2022-12-18T05:46:36;25.73;;;11.67;;
18340;SDS011;9296;48.084;16.352;2022-12-18T05:49:03;25.20;;;12.07;;
18340;SDS011;9296;48.084;16.352;2022-12-18T05:51:30;27.77;;;12.43;;
18340;SDS011;9296;48.084;16.352;2022-12-18T05:53:57;27.70;;;12.23;;
18340;SDS011;9296;48.084;16.352;2022-12-18T05:56:25;25.60;;;12.10;;
18340;SDS011;9296;48.084;16.352;2022-12-18T05:58:52;35.47;;;14.40;;
18340;SDS011;9296;48.084;16.352;2022-12-18T06:01:20;30.80;;;14.77;;
18340;SDS011;9296;48.084;16.352;2022-12-18T06:03:49;27.27;;;13.40;;
18340;SDS011;9296;48.084;16.352;2022-12-18T06:06:17;31.53;;;14.23;;
18340;SDS011;9296;48.084;16.352;2022-12-18T06:14:52;23.43;;;10.90;;
18340;SDS011;9296;48.084;16.352;2022-12-18T06:17:19;29.07;;;12.03;;
18340;SDS011;9296;48.084;16.352;2022-12-18T06:19:48;24.90;;;11.47;;
18340;SDS011;9296;48.084;16.352;2022-12-18T06:22:15;25.20;;;11.20;;
18340;SDS011;9296;48.084;16.352;2022-12-18T06:27:51;30.57;;;12.90;;
18340;SDS011;9296;48.084;16.352;2022-12-18T06:30:19;27.17;;;12.87;;
18340;SDS011;9296;48.084;16.352;2022-12-18T06:32:47;30.57;;;13.23;;
18340;SDS011;9296;48.084;16.352;2022-12-18T06:35:16;30.30;;;13.30;;
18340;SDS011;9296;48.084;16.352;2022-12-18T06:37:43;30.80;;;12.80;;
18340;SDS011;9296;48.084;16.352;2022-12-18T06:40:10;30.70;;;12.67;;
18340;SDS011;9296;48.084;16.352;2022-12-18T06:42:38;31.00;;;13.20;;
18340;SDS011;9296;48.084;16.352;2022-12-18T06:45:05;28.03;;;13.20;;
18340;SDS011;9296;48.084;16.352;2022-12-18T06:47:32;27.73;;;12.07;;
18340;SDS011;9296;48.084;16.352;2022-12-18T06:50:00;26.47;;;12.30;;
18340;SDS011;9296;48.084;16.352;2022-12-18T06:52:28;28.03;;;12.67;;
18340;SDS011;9296;48.084;16.352;2022-12-18T06:58:02;27.97;;;12.80;;
18340;SDS011;9296;48.084;16.352;2022-12-18T07:00:29;28.23;;;12.67;;
18340;SDS011;9296;48.084;16.352;2022-12-18T07:02:56;27.33;;;13.03;;
18340;SDS011;9296;48.084;16.352;2022-12-18T07:05:23;30.43;;;13.37;;
18340;SDS011;9296;48.084;16.352;2022-12-18T07:07:52;29.03;;;13.83;;
18340;SDS011;9296;48.084;16.352;2022-12-18T07:13:22;28.27;;;13.37;;
18340;SDS011;9296;48.084;16.352;2022-12-18T07:15:50;33.80;;;13.93;;
18340;SDS011;9296;48.084;16.352;2022-12-18T07:18:17;46.40;;;20.60;;
18340;SDS011;9296;48.084;16.352;2022-12-18T07:20:44;49.63;;;22.30;;
18340;SDS011;9296;48.084;16.352;2022-12-18T07:23:14;46.53;;;20.40;;
18340;SDS011;9296;48.084;16.352;2022-12-18T07:25:41;40.03;;;18.30;;
18340;SDS011;9296;48.084;16.352;2022-12-18T07:28:09;41.30;;;17.63;;
18340;SDS011;9296;48.084;16.352;2022-12-18T07:30:37;41.93;;;18.60;;
18340;SDS011;9296;48.084;16.352;2022-12-18T07:33:04;29.80;;;14.20;;
18340;SDS011;9296;48.084;16.352;2022-12-18T07:35:32;29.97;;;13.23;;
18340;SDS011;9296;48.084;16.352;2022-12-18T07:37:59;26.20;;;11.80;;
18340;SDS011;9296;48.084;16.352;2022-12-18T07:40:29;27.57;;;12.37;;
18340;SDS011;9296;48.084;16.352;2022-12-18T07:42:56;29.73;;;13.10;;
18340;SDS011;9296;48.084;16.352;2022-12-18T07:45:23;26.23;;;12.20;;
18340;SDS011;9296;48.084;16.352;2022-12-18T07:47:51;23.73;;;11.43;;
18340;SDS011;9296;48.084;16.352;2022-12-18T07:50:18;27.93;;;12.13;;
18340;SDS011;9296;48.084;16.352;2022-12-18T07:52:45;27.60;;;12.63;;
18340;SDS011;9296;48.084;16.352;2022-12-18T07:55:12;30.77;;;15.00;;
18340;SDS011;9296;48.084;16.352;2022-12-18T07:57:41;26.73;;;14.37;;
18340;SDS011;9296;48.084;16.352;2022-12-18T08:00:09;27.30;;;13.47;;
18340;SDS011;9296;48.084;16.352;2022-12-18T08:02:37;25.40;;;12.33;;
18340;SDS011;9296;48.084;16.352;2022-12-18T08:05:04;26.17;;;12.80;;
18340;SDS011;9296;48.084;16.352;2022-12-18T08:07:32;26.17;;;12.97;;
18340;SDS011;9296;48.084;16.352;2022-12-18T08:13:10;24.10;;;12.30;;
18340;SDS011;9296;48.084;16.352;2022-12-18T08:15:37;26.70;;;13.10;;
18340;SDS011;9296;48.084;16.352;2022-12-18T08:18:04;29.43;;;14.40;;
18340;SDS011;9296;48.084;16.352;2022-12-18T08:20:31;31.90;;;15.30;;
18340;SDS011;9296;48.084;16.352;2022-12-18T08:22:58;33.20;;;14.57;;
18340;SDS011;9296;48.084;16.352;2022-12-18T08:25:25;29.13;;;13.50;;
18340;SDS011;9296;48.084;16.352;2022-12-18T08:27:53;24.17;;;12.20;;
18340;SDS011;9296;48.084;16.352;2022-12-18T08:30:23;25.87;;;12.57;;
18340;SDS011;9296;48.084;16.352;2022-12-18T08:32:51;27.03;;;14.10;;
18340;SDS011;9296;48.084;16.352;2022-12-18T08:35:19;25.47;;;12.70;;
18340;SDS011;9296;48.084;16.352;2022-12-18T08:37:46;27.27;;;14.00;;
18340;SDS011;9296;48.084;16.352;2022-12-18T08:46:41;27.60;;;14.30;;
18340;SDS011;9296;48.084;16.352;2022-12-18T08:49:08;29.90;;;15.73;;
18340;SDS011;9296;48.084;16.352;2022-12-18T08:51:36;33.53;;;16.83;;
18340;SDS011;9296;48.084;16.352;2022-12-18T08:56:50;44.03;;;23.43;;
18340;SDS011;9296;48.084;16.352;2022-12-18T08:59:20;42.30;;;19.47;;
18340;SDS011;9296;48.084;16.352;2022-12-18T09:01:49;35.03;;;17.07;;
18340;SDS011;9296;48.084;16.352;2022-12-18T09:04:16;30.13;;;15.83;;
18340;SDS011;9296;48.084;16.352;2022-12-18T09:06:43;33.40;;;16.40;;
18340;SDS011;9296;48.084;16.352;2022-12-18T09:09:29;31.70;;;16.33;;
18340;SDS011;9296;48.084;16.352;2022-12-18T09:11:56;29.80;;;15.20;;
18340;SDS011;9296;48.084;16.352;2022-12-18T09:14:23;28.10;;;15.23;;
18340;SDS011;9296;48.084;16.352;2022-12-18T09:16:51;30.60;;;15.30;;
18340;SDS011;9296;48.084;16.352;2022-12-18T09:19:19;30.53;;;15.63;;
18340;SDS011;9296;48.084;16.352;2022-12-18T09:21:46;30.30;;;14.93;;
18340;SDS011;9296;48.084;16.352;2022-12-18T09:24:16;35.17;;;15.57;;
18340;SDS011;9296;48.084;16.352;2022-12-18T09:26:43;31.40;;;15.63;;
18340;SDS011;9296;48.084;16.352;2022-12-18T09:29:10;28.13;;;15.70;;
18340;SDS011;9296;48.084;16.352;2022-12-18T09:31:37;29.67;;;15.63;;
18340;SDS011;9296;48.084;16.352;2022-12-18T09:34:07;29.47;;;15.30;;
18340;SDS011;9296;48.084;16.352;2022-12-18T09:36:34;31.20;;;15.90;;
18340;SDS011;9296;48.084;16.352;2022-12-18T09:39:16;31.10;;;15.90;;
18340;SDS011;9296;48.084;16.352;2022-12-18T09:41:45;30.83;;;15.20;;
18340;SDS011;9296;48.084;16.352;2022-12-18T09:44:15;31.33;;;16.67;;
18340;SDS011;9296;48.084;16.352;2022-12-18T09:46:46;31.90;;;16.40;;
18340;SDS011;9296;48.084;16.352;2022-12-18T09:49:16;33.33;;;16.87;;
18340;SDS011;9296;48.084;16.352;2022-12-18T09:51:46;34.73;;;16.20;;
18340;SDS011;9296;48.084;16.352;2022-12-18T10:00:22;37.73;;;16.20;;
18340;SDS011;9296;48.084;16.352;2022-12-18T10:02:49;33.60;;;16.47;;
18340;SDS011;9296;48.084;16.352;2022-12-18T10:05:20;40.13;;;17.23;;
18340;SDS011;9296;48.084;16.352;2022-12-18T10:07:53;37.47;;;17.30;;
18340;SDS011;9296;48.084;16.352;2022-12-18T10:13:28;34.30;;;15.60;;
18340;SDS011;9296;48.084;16.352;2022-12-18T10:16:00;33.67;;;15.83;;
18340;SDS011;9296;48.084;16.352;2022-12-18T10:18:32;33.33;;;15.63;;
18340;SDS011;9296;48.084;16.352;2022-12-18T10:21:03;35.80;;;17.60;;
18340;SDS011;9296;48.084;16.352;2022-12-18T10:23:36;33.23;;;15.87;;
18340;SDS011;9296;48.084;16.352;2022-12-18T10:26:05;34.33;;;16.87;;
18340;SDS011;9296;48.084;16.352;2022-12-18T10:28:35;36.27;;;17.67;;
18340;SDS011;9296;48.084;16.352;2022-12-18T10:31:04;35.67;;;17.23;;
18340;SDS011;9296;48.084;16.352;2022-12-18T10:33:32;40.43;;;17.17;;
18340;SDS011;9296;48.084;16.352;2022-12-18T10:35:59;41.00;;;19.53;;
18340;SDS011;9296;48.084;16.352;2022-12-18T10:38:29;39.10;;;17.67;;
18340;SDS011;9296;48.084;16.352;2022-12-18T10:40:58;38.40;;;17.93;;
18340;SDS011;9296;48.084;16.352;2022-12-18T10:43:26;43.60;;;19.63;;
18340;SDS011;9296;48.084;16.352;2022-12-18T10:46:04;39.63;;;17.80;;
18340;SDS011;9296;48.084;16.352;2022-12-18T10:48:35;39.20;;;17.73;;
18340;SDS011;9296;48.084;16.352;2022-12-18T10:51:03;40.63;;;17.70;;
18340;SDS011;9296;48.084;16.352;2022-12-18T10:53:33;41.27;;;18.20;;
18340;SDS011;9296;48.084;16.352;2022-12-18T10:56:00;44.73;;;17.97;;
18340;SDS011;9296;48.084;16.352;2022-12-18T10:58:30;40.90;;;17.80;;
18340;SDS011;9296;48.084;16.352;2022-12-18T11:01:08;37.73;;;17.47;;
18340;SDS011;9296;48.084;16.352;2022-12-18T11:03:37;41.23;;;19.23;;
18340;SDS011;9296;48.084;16.352;2022-12-18T11:06:06;40.53;;;19.57;;
18340;SDS011;9296;48.084;16.352;2022-12-18T11:08:34;39.33;;;17.40;;
18340;SDS011;9296;48.084;16.352;2022-12-18T11:14:06;38.87;;;17.70;;
18340;SDS011;9296;48.084;16.352;2022-12-18T11:16:34;34.33;;;16.90;;
18340;SDS011;9296;48.084;16.352;2022-12-18T11:19:17;37.17;;;17.37;;
18340;SDS011;9296;48.084;16.352;2022-12-18T11:21:47;38.23;;;17.97;;
18340;SDS011;9296;48.084;16.352;2022-12-18T11:24:29;40.47;;;18.47;;
18340;SDS011;9296;48.084;16.352;2022-12-18T11:27:16;37.17;;;17.47;;
18340;SDS011;9296;48.084;16.352;2022-12-18T11:29:44;35.90;;;16.90;;
18340;SDS011;9296;48.084;16.352;2022-12-18T11:34:58;36.90;;;17.30;;
18340;SDS011;9296;48.084;16.352;2022-12-18T11:37:26;35.93;;;17.60;;
18340;SDS011;9296;48.084;16.352;2022-12-18T11:43:17;46.70;;;21.30;;
18340;SDS011;9296;48.084;16.352;2022-12-18T11:45:48;40.93;;;20.40;;
18340;SDS011;9296;48.084;16.352;2022-12-18T11:48:18;41.90;;;20.30;;
18340;SDS011;9296;48.084;16.352;2022-12-18T11:50:48;54.63;;;24.60;;
18340;SDS011;9296;48.084;16.352;2022-12-18T11:53:16;51.90;;;22.83;;
18340;SDS011;9296;48.084;16.352;2022-12-18T11:58:49;47.33;;;22.03;;
18340;SDS011;9296;48.084;16.352;2022-12-18T12:01:28;47.20;;;21.37;;
18340;SDS011;9296;48.084;16.352;2022-12-18T12:04:02;39.77;;;19.60;;
18340;SDS011;9296;48.084;16.352;2022-12-18T12:06:33;42.53;;;18.27;;
18340;SDS011;9296;48.084;16.352;2022-12-18T12:09:03;42.97;;;19.67;;
18340;SDS011;9296;48.084;16.352;2022-12-18T12:11:35;48.40;;;21.23;;
18340;SDS011;9296;48.084;16.352;2022-12-18T12:14:12;48.93;;;22.80;;
18340;SDS011;9296;48.084;16.352;2022-12-18T12:16:45;46.37;;;21.30;;
18340;SDS011;9296;48.084;16.352;2022-12-18T12:19:19;44.23;;;19.63;;
18340;SDS011;9296;48.084;16.352;2022-12-18T12:21:49;37.77;;;17.87;;
18340;SDS011;9296;48.084;16.352;2022-12-18T12:24:26;43.60;;;19.37;;
18340;SDS011;9296;48.084;16.352;2022-12-18T12:26:56;43.63;;;18.63;;
18340;SDS011;9296;48.084;16.352;2022-12-18T12:29:30;43.03;;;20.23;;
18340;SDS011;9296;48.084;16.352;2022-12-18T12:32:02;42.73;;;19.50;;
18340;SDS011;9296;48.084;16.352;2022-12-18T12:34:32;41.17;;;19.07;;
18340;SDS011;9296;48.084;16.352;2022-12-18T12:37:05;41.77;;;18.97;;
18340;SDS011;9296;48.084;16.352;2022-12-18T12:39:36;42.50;;;19.70;;
18340;SDS011;9296;48.084;16.352;2022-12-18T12:45:22;42.83;;;19.67;;
18340;SDS011;9296;48.084;16.352;2022-12-18T12:47:52;46.43;;;21.20;;
18340;SDS011;9296;48.084;16.352;2022-12-18T12:50:20;49.37;;;21.23;;
18340;SDS011;9296;48.084;16.352;2022-12-18T12:52:49;46.07;;;21.13;;
18340;SDS011;9296;48.084;16.352;2022-12-18T12:55:18;45.43;;;19.87;;
18340;SDS011;9296;48.084;16.352;2022-12-18T12:57:48;40.43;;;18.83;;
18340;SDS011;9296;48.084;16.352;2022-12-18T13:00:18;46.50;;;21.30;;
18340;SDS011;9296;48.084;16.352;2022-12-18T13:02:49;48.53;;;22.00;;
18340;SDS011;9296;48.084;16.352;2022-12-18T13:05:19;45.77;;;21.53;;
18340;SDS011;9296;48.084;16.352;2022-12-18T13:07:51;44.30;;;20.20;;
18340;SDS011;9296;48.084;16.352;2022-12-18T13:10:23;48.77;;;20.93;;
18340;SDS011;9296;48.084;16.352;2022-12-18T13:12:52;45.40;;;20.53;;
18340;SDS011;9296;48.084;16.352;2022-12-18T13:15:21;46.63;;;22.37;;
18340;SDS011;9296;48.084;16.352;2022-12-18T13:17:51;49.50;;;21.70;;
18340;SDS011;9296;48.084;16.352;2022-12-18T13:20:32;49.40;;;21.93;;
18340;SDS011;9296;48.084;16.352;2022-12-18T13:23:00;51.37;;;21.73;;
18340;SDS011;9296;48.084;16.352;2022-12-18T13:25:31;47.30;;;21.30;;
18340;SDS011;9296;48.084;16.352;2022-12-18T13:28:11;50.77;;;20.80;;
18340;SDS011;9296;48.084;16.352;2022-12-18T13:30:48;49.57;;;21.67;;
18340;SDS011;9296;48.084;16.352;2022-12-18T13:36:30;47.30;;;21.17;;
18340;SDS011;9296;48.084;16.352;2022-12-18T13:44:45;55.63;;;24.80;;
18340;SDS011;9296;48.084;16.352;2022-12-18T13:47:24;47.27;;;22.33;;
18340;SDS011;9296;48.084;16.352;2022-12-18T13:49:53;48.00;;;22.20;;
18340;SDS011;9296;48.084;16.352;2022-12-18T13:52:23;47.27;;;21.47;;
18340;SDS011;9296;48.084;16.352;2022-12-18T13:54:53;52.33;;;21.73;;
18340;SDS011;9296;48.084;16.352;2022-12-18T14:00:24;53.20;;;21.70;;
18340;SDS011;9296;48.084;16.352;2022-12-18T14:02:53;54.53;;;22.30;;
18340;SDS011;9296;48.084;16.352;2022-12-18T14:05:21;71.07;;;25.17;;
18340;SDS011;9296;48.084;16.352;2022-12-18T14:07:50;53.53;;;22.03;;
18340;SDS011;9296;48.084;16.352;2022-12-18T14:13:23;53.93;;;20.10;;
18340;SDS011;9296;48.084;16.352;2022-12-18T14:15:52;61.20;;;22.33;;
18340;SDS011;9296;48.084;16.352;2022-12-18T14:18:20;51.97;;;21.00;;
18340;SDS011;9296;48.084;16.352;2022-12-18T14:20:49;71.07;;;24.73;;
18340;SDS011;9296;48.084;16.352;2022-12-18T14:23:28;49.87;;;20.87;;
18340;SDS011;9296;48.084;16.352;2022-12-18T14:25:55;57.70;;;23.27;;
18340;SDS011;9296;48.084;16.352;2022-12-18T14:28:23;45.20;;;19.73;;
18340;SDS011;9296;48.084;16.352;2022-12-18T14:30:51;52.37;;;23.97;;
18340;SDS011;9296;48.084;16.352;2022-12-18T14:33:20;45.20;;;19.87;;
18340;SDS011;9296;48.084;16.352;2022-12-18T14:35:57;45.47;;;18.77;;
18340;SDS011;9296;48.084;16.352;2022-12-18T14:38:30;45.80;;;19.67;;
18340;SDS011;9296;48.084;16.352;2022-12-18T14:40:58;44.70;;;19.27;;
18340;SDS011;9296;48.084;16.352;2022-12-18T14:43:26;47.60;;;19.60;;
18340;SDS011;9296;48.084;16.352;2022-12-18T14:45:53;49.23;;;19.33;;
18340;SDS011;9296;48.084;16.352;2022-12-18T14:48:22;44.57;;;18.77;;
18340;SDS011;9296;48.084;16.352;2022-12-18T14:50:55;46.47;;;19.23;;
18340;SDS011;9296;48.084;16.352;2022-12-18T14:53:33;46.90;;;20.33;;
18340;SDS011;9296;48.084;16.352;2022-12-18T14:56:01;42.87;;;18.27;;
18340;SDS011;9296;48.084;16.352;2022-12-18T14:58:28;45.53;;;18.23;;
18340;SDS011;9296;48.084;16.352;2022-12-18T15:00:55;46.23;;;20.43;;
18340;SDS011;9296;48.084;16.352;2022-12-18T15:03:22;47.73;;;19.87;;
18340;SDS011;9296;48.084;16.352;2022-12-18T15:05:50;49.83;;;19.90;;
18340;SDS011;9296;48.084;16.352;2022-12-18T15:08:28;48.50;;;19.80;;
18340;SDS011;9296;48.084;16.352;2022-12-18T15:17:17;44.57;;;18.77;;
18340;SDS011;9296;48.084;16.352;2022-12-18T15:19:45;39.77;;;17.40;;
18340;SDS011;9296;48.084;16.352;2022-12-18T15:22:19;50.97;;;19.93;;
18340;SDS011;9296;48.084;16.352;2022-12-18T15:24:47;49.57;;;20.30;;
18340;SDS011;9296;48.084;16.352;2022-12-18T15:27:21;46.60;;;20.03;;
18340;SDS011;9296;48.084;16.352;2022-12-18T15:29:59;45.00;;;19.97;;
18340;SDS011;9296;48.084;16.352;2022-12-18T15:32:27;47.13;;;19.17;;
18340;SDS011;9296;48.084;16.352;2022-12-18T15:35:01;45.70;;;18.97;;
18340;SDS011;9296;48.084;16.352;2022-12-18T15:37:29;49.40;;;20.00;;
18340;SDS011;9296;48.084;16.352;2022-12-18T15:39:56;50.60;;;19.60;;
18340;SDS011;9296;48.084;16.352;2022-12-18T15:42:23;48.03;;;19.03;;
18340;SDS011;9296;48.084;16.352;2022-12-18T15:45:10;50.17;;;21.20;;
18340;SDS011;9296;48.084;16.352;2022-12-18T15:47:39;45.03;;;18.87;;
18340;SDS011;9296;48.084;16.352;2022-12-18T15:50:08;50.03;;;20.47;;
18340;SDS011;9296;48.084;16.352;2022-12-18T15:52:38;46.97;;;20.07;;
18340;SDS011;9296;48.084;16.352;2022-12-18T15:55:08;50.20;;;19.93;;
18340;SDS011;9296;48.084;16.352;2022-12-18T15:57:54;48.87;;;20.73;;
18340;SDS011;9296;48.084;16.352;2022-12-18T16:00:21;49.17;;;21.00;;
18340;SDS011;9296;48.084;16.352;2022-12-18T16:02:50;50.03;;;20.50;;
18340;SDS011;9296;48.084;16.352;2022-12-18T16:05:18;46.50;;;20.60;;
18340;SDS011;9296;48.084;16.352;2022-12-18T16:07:45;49.10;;;20.47;;
18340;SDS011;9296;48.084;16.352;2022-12-18T16:10:13;47.60;;;19.17;;
18340;SDS011;9296;48.084;16.352;2022-12-18T16:12:40;47.70;;;19.33;;
18340;SDS011;9296;48.084;16.352;2022-12-18T16:15:10;40.80;;;18.37;;
18340;SDS011;9296;48.084;16.352;2022-12-18T16:17:38;44.63;;;19.37;;
18340;SDS011;9296;48.084;16.352;2022-12-18T16:20:08;41.17;;;19.67;;
18340;SDS011;9296;48.084;16.352;2022-12-18T16:22:39;46.07;;;20.00;;
18340;SDS011;9296;48.084;16.352;2022-12-18T16:25:08;44.07;;;19.40;;
18340;SDS011;9296;48.084;16.352;2022-12-18T16:27:54;44.63;;;18.90;;
18340;SDS011;9296;48.084;16.352;2022-12-18T16:30:23;50.00;;;19.90;;
18340;SDS011;9296;48.084;16.352;2022-12-18T16:32:51;48.90;;;19.63;;
18340;SDS011;9296;48.084;16.352;2022-12-18T16:35:19;43.70;;;18.77;;